createdAt,value
2023-01-12T00:01:37.719Z,10.40
2023-01-12T00:04:05.062Z,13.13
2023-01-12T00:06:32.304Z,5.93
2023-01-12T00:08:59.531Z,11.53
2023-01-12T00:11:27.005Z,12.07
2023-01-12T00:13:54.217Z,6.63
2023-01-12T00:16:41.234Z,5.37
2023-01-12T00:19:17.662Z,21.00
2023-01-12T00:21:59.299Z,10.33
2023-01-12T00:24:26.508Z,14.67
2023-01-12T00:26:53.844Z,7.47
2023-01-12T00:29:21.591Z,9.23
2023-01-12T00:31:48.801Z,4.47
2023-01-12T00:34:16.480Z,7.40
2023-01-12T00:36:44.162Z,6.53
2023-01-12T00:39:11.306Z,8.63
2023-01-12T00:42:00.100Z,7.20
2023-01-12T00:44:45.965Z,12.57
2023-01-12T00:47:13.860Z,8.57
2023-01-12T00:49:41.398Z,6.70
2023-01-12T00:52:13.305Z,9.10
2023-01-12T00:54:42.847Z,8.60
2023-01-12T00:57:10.177Z,6.00
2023-01-12T00:59:37.573Z,7.83
2023-01-12T01:02:05.377Z,6.33
2023-01-12T01:04:35.021Z,16.00
2023-01-12T01:07:02.508Z,5.80
2023-01-12T01:09:30.251Z,10.10
2023-01-12T01:11:58.239Z,7.77
2023-01-12T01:14:25.346Z,6.30
2023-01-12T01:16:52.440Z,8.23
2023-01-12T01:19:19.665Z,8.20
2023-01-12T01:21:46.851Z,9.30
2023-01-12T01:24:14.625Z,7.00
2023-01-12T01:26:42.262Z,8.20
2023-01-12T01:29:10.033Z,8.37
2023-01-12T01:31:40.513Z,11.33
2023-01-12T01:34:10.364Z,10.73
2023-01-12T01:36:37.953Z,13.00
2023-01-12T01:39:05.266Z,11.13
2023-01-12T01:41:33.111Z,11.37
2023-01-12T01:44:00.250Z,9.10
2023-01-12T01:46:30.573Z,10.13
2023-01-12T01:48:58.702Z,9.43
2023-01-12T01:51:26.007Z,12.80
2023-01-12T01:53:53.378Z,6.10
2023-01-12T01:56:26.806Z,8.60
2023-01-12T01:58:53.898Z,8.33
2023-01-12T02:01:21.354Z,11.30
2023-01-12T02:03:48.673Z,10.70
2023-01-12T02:06:16.176Z,11.27
2023-01-12T02:08:49.014Z,15.87
2023-01-12T02:11:35.148Z,8.63
2023-01-12T02:14:21.063Z,11.13
2023-01-12T02:16:58.880Z,12.53
2023-01-12T02:19:25.969Z,9.87
2023-01-12T02:22:03.982Z,16.33
2023-01-12T02:24:43.243Z,12.97
2023-01-12T02:27:22.219Z,8.63
2023-01-12T02:29:49.266Z,12.10
2023-01-12T02:32:24.068Z,14.20
2023-01-12T02:35:03.541Z,11.23
2023-01-12T02:37:33.676Z,14.90
2023-01-12T02:40:10.428Z,7.73
2023-01-12T02:42:44.054Z,12.80
2023-01-12T02:45:29.810Z,12.50
2023-01-12T02:47:58.259Z,17.13
2023-01-12T02:50:30.102Z,15.03
2023-01-12T02:53:00.301Z,11.70
2023-01-12T02:55:29.402Z,13.60
2023-01-12T02:57:57.222Z,11.73
2023-01-12T03:00:24.605Z,13.20
2023-01-12T03:02:51.890Z,10.47
2023-01-12T03:05:19.103Z,12.30
2023-01-12T03:07:46.981Z,13.77
2023-01-12T03:10:32.651Z,13.60
2023-01-12T03:13:00.360Z,20.73
2023-01-12T03:15:28.945Z,15.93
2023-01-12T03:18:00.472Z,19.47
2023-01-12T03:20:27.574Z,12.97
2023-01-12T03:22:58.536Z,17.37
2023-01-12T03:25:27.112Z,20.13
2023-01-12T03:27:56.752Z,20.97
2023-01-12T03:30:26.425Z,20.03
2023-01-12T03:32:53.639Z,14.20
2023-01-12T03:35:24.249Z,28.90
2023-01-12T03:37:56.982Z,19.43
2023-01-12T03:40:33.812Z,19.30
2023-01-12T03:43:03.965Z,20.73
2023-01-12T03:45:31.156Z,15.13
2023-01-12T03:48:06.636Z,15.53
2023-01-12T03:51:00.236Z,16.60
2023-01-12T03:53:28.427Z,12.27
2023-01-12T03:55:58.524Z,18.97
2023-01-12T03:58:26.088Z,24.63
2023-01-12T04:00:53.287Z,20.17
2023-01-12T04:03:20.640Z,15.20
2023-01-12T04:05:47.800Z,15.63
2023-01-12T04:08:16.028Z,10.90
2023-01-12T04:10:43.114Z,11.47
2023-01-12T04:13:10.283Z,10.13
2023-01-12T04:15:42.361Z,21.53
2023-01-12T04:18:09.975Z,18.33
2023-01-12T04:20:37.176Z,13.77
2023-01-12T04:23:04.297Z,16.37
2023-01-12T04:25:31.573Z,18.23
2023-01-12T04:28:02.936Z,20.00
2023-01-12T04:30:31.251Z,15.17
2023-01-12T04:32:58.881Z,16.07
2023-01-12T04:35:26.129Z,9.63
2023-01-12T04:37:53.415Z,18.17
2023-01-12T04:40:20.744Z,14.80
2023-01-12T04:43:08.447Z,11.57
2023-01-12T04:45:38.095Z,18.93
2023-01-12T04:48:15.173Z,14.93
2023-01-12T04:50:44.282Z,13.83
2023-01-12T04:53:12.160Z,18.13
2023-01-12T04:55:40.969Z,11.73
2023-01-12T04:58:08.244Z,17.57
2023-01-12T05:00:35.789Z,16.40
2023-01-12T05:03:03.542Z,14.73
2023-01-12T05:05:31.642Z,8.10
2023-01-12T05:08:21.490Z,11.37
2023-01-12T05:10:51.900Z,8.30
2023-01-12T05:13:19.141Z,5.07
2023-01-12T05:15:46.281Z,7.40
2023-01-12T05:18:13.589Z,9.13
2023-01-12T05:20:40.733Z,11.43
2023-01-12T05:23:07.929Z,4.40
2023-01-12T05:25:35.121Z,5.00
2023-01-12T05:28:02.340Z,8.13
2023-01-12T05:30:31.691Z,6.13
2023-01-12T05:32:59.202Z,4.83
2023-01-12T05:35:26.387Z,5.93
2023-01-12T05:37:56.004Z,9.60
2023-01-12T05:40:23.172Z,7.03
2023-01-12T05:43:11.796Z,4.67
2023-01-12T05:45:38.980Z,7.17
2023-01-12T05:48:07.871Z,8.27
2023-01-12T05:50:34.993Z,6.20
2023-01-12T05:53:02.120Z,5.70
2023-01-12T05:55:29.279Z,9.40
2023-01-12T05:57:56.425Z,6.73
2023-01-12T06:00:23.740Z,3.50
2023-01-12T06:02:50.811Z,6.00
2023-01-12T06:05:17.980Z,9.53
2023-01-12T06:07:45.062Z,11.33
2023-01-12T06:10:12.630Z,7.53
2023-01-12T06:12:58.279Z,5.73
2023-01-12T06:15:25.434Z,11.20
2023-01-12T06:17:52.569Z,5.40
2023-01-12T06:20:19.769Z,5.13
2023-01-12T06:22:46.888Z,8.57
2023-01-12T06:25:14.133Z,5.90
2023-01-12T06:27:41.296Z,7.97
2023-01-12T06:30:11.660Z,7.57
2023-01-12T06:32:41.765Z,7.03
2023-01-12T06:35:18.721Z,7.03
2023-01-12T06:37:46.834Z,4.43
2023-01-12T06:40:14.176Z,8.33
2023-01-12T06:42:42.177Z,8.10
2023-01-12T06:45:09.768Z,10.37
2023-01-12T06:47:44.858Z,10.00
2023-01-12T06:50:12.467Z,7.73
2023-01-12T06:52:39.616Z,12.33
2023-01-12T06:55:06.981Z,13.57
2023-01-12T06:57:34.191Z,11.07
2023-01-12T07:00:01.370Z,15.50
2023-01-12T07:02:28.554Z,11.63
2023-01-12T07:04:55.704Z,12.67
2023-01-12T07:07:22.881Z,10.30
2023-01-12T07:09:50.003Z,19.77
2023-01-12T07:12:17.346Z,9.90
2023-01-12T07:14:44.553Z,6.83
2023-01-12T07:17:12.635Z,4.83
2023-01-12T07:19:41.483Z,7.10
2023-01-12T07:22:08.955Z,7.07
2023-01-12T07:24:36.096Z,11.43
2023-01-12T07:27:03.228Z,7.40
2023-01-12T07:29:30.382Z,9.13
2023-01-12T07:31:57.491Z,4.17
2023-01-12T07:34:24.693Z,7.30
2023-01-12T07:36:52.132Z,10.90
2023-01-12T07:39:19.267Z,10.53
2023-01-12T07:42:05.132Z,2.07
2023-01-12T07:44:32.273Z,8.40
2023-01-12T07:47:02.425Z,4.73
2023-01-12T07:49:29.550Z,5.37
2023-01-12T07:51:56.699Z,5.73
2023-01-12T07:54:24.067Z,8.73
2023-01-12T07:56:51.217Z,11.17
2023-01-12T07:59:18.345Z,3.90
2023-01-12T08:01:45.546Z,3.27
2023-01-12T08:04:13.451Z,1.97
2023-01-12T08:06:40.572Z,5.10
2023-01-12T08:09:07.856Z,7.47
2023-01-12T08:11:35.005Z,5.03
2023-01-12T08:14:02.185Z,4.67
2023-01-12T08:16:33.217Z,9.43
2023-01-12T08:19:03.208Z,2.77
2023-01-12T08:21:36.886Z,7.10
2023-01-12T08:24:05.810Z,3.93
2023-01-12T08:26:36.843Z,3.97
2023-01-12T08:29:08.481Z,4.53
2023-01-12T08:31:36.813Z,3.97
2023-01-12T08:34:04.459Z,3.33
2023-01-12T08:36:32.172Z,7.37
2023-01-12T08:39:01.363Z,1.33
2023-01-12T08:41:37.603Z,6.63
2023-01-12T08:44:09.155Z,5.63
2023-01-12T08:46:41.115Z,2.03
2023-01-12T08:49:11.347Z,2.83
2023-01-12T08:51:39.605Z,4.13
2023-01-12T08:54:07.908Z,3.33
2023-01-12T08:56:35.355Z,4.30
2023-01-12T08:59:03.091Z,2.30
2023-01-12T09:01:30.732Z,5.13
2023-01-12T09:03:58.350Z,2.77
2023-01-12T09:06:29.808Z,2.90
2023-01-12T09:09:01.305Z,1.40
2023-01-12T09:11:29.474Z,1.33
2023-01-12T09:13:58.598Z,1.70
2023-01-12T09:16:26.846Z,1.37
2023-01-12T09:18:54.061Z,4.13
2023-01-12T09:21:22.243Z,7.23
2023-01-12T09:23:49.677Z,4.03
2023-01-12T09:26:18.410Z,3.07
2023-01-12T09:28:45.924Z,2.60
2023-01-12T09:31:18.966Z,5.07
2023-01-12T09:33:46.867Z,0.93
2023-01-12T09:36:15.398Z,1.80
2023-01-12T09:38:43.245Z,1.03
2023-01-12T09:41:10.351Z,2.00
2023-01-12T09:44:03.211Z,4.33
2023-01-12T09:47:10.436Z,3.67
2023-01-12T09:50:01.259Z,1.93
2023-01-12T09:52:37.507Z,3.53
2023-01-12T09:55:04.743Z,2.27
2023-01-12T09:57:47.961Z,3.80
2023-01-12T10:00:15.324Z,2.27
2023-01-12T10:02:44.820Z,3.80
2023-01-12T10:05:19.143Z,4.00
2023-01-12T10:07:46.338Z,1.60
2023-01-12T10:10:15.251Z,1.97
2023-01-12T10:12:46.292Z,1.30
2023-01-12T10:15:22.548Z,3.33
2023-01-12T10:17:52.701Z,1.43
2023-01-12T10:20:23.061Z,2.60
2023-01-12T10:22:50.937Z,1.60
2023-01-12T10:25:21.186Z,2.67
2023-01-12T10:27:50.307Z,3.97
2023-01-12T10:30:25.215Z,3.53
2023-01-12T10:32:52.593Z,3.73
2023-01-12T10:35:21.585Z,5.73
2023-01-12T10:37:56.096Z,3.57
2023-01-12T10:40:23.535Z,3.40
2023-01-12T10:43:19.525Z,3.20
2023-01-12T10:46:08.134Z,4.70
2023-01-12T10:48:39.138Z,3.07
2023-01-12T10:51:10.587Z,2.37
2023-01-12T10:53:46.136Z,3.27
2023-01-12T10:56:33.642Z,3.33
2023-01-12T10:59:08.177Z,6.00
2023-01-12T11:01:44.772Z,2.87
2023-01-12T11:04:16.520Z,3.40
2023-01-12T11:06:45.374Z,2.83
2023-01-12T11:09:20.073Z,5.47
2023-01-12T11:11:47.238Z,2.93
2023-01-12T11:14:24.149Z,4.10
2023-01-12T11:16:51.508Z,2.80
2023-01-12T11:19:21.651Z,3.77
2023-01-12T11:22:16.514Z,2.73
2023-01-12T11:24:47.450Z,3.40
2023-01-12T11:27:14.542Z,1.07
2023-01-12T11:30:04.885Z,3.20
2023-01-12T11:32:32.110Z,2.43
2023-01-12T11:35:19.496Z,2.03
2023-01-12T11:37:46.968Z,4.80
2023-01-12T11:40:23.372Z,5.37
2023-01-12T11:43:09.406Z,3.00
2023-01-12T11:45:46.038Z,2.23
2023-01-12T11:48:36.351Z,4.20
2023-01-12T11:51:03.767Z,3.83
2023-01-12T11:53:31.053Z,3.07
2023-01-12T11:55:58.420Z,3.33
2023-01-12T11:58:37.720Z,7.80
2023-01-12T12:01:17.242Z,2.50
2023-01-12T12:03:56.951Z,4.27
2023-01-12T12:06:24.064Z,3.80
2023-01-12T12:09:17.076Z,3.27
2023-01-12T12:11:53.256Z,2.37
2023-01-12T12:14:23.578Z,4.77
2023-01-12T12:17:09.778Z,3.07
2023-01-12T12:19:49.139Z,5.87
2023-01-12T12:22:21.921Z,1.90
2023-01-12T12:25:01.372Z,3.37
2023-01-12T12:27:47.375Z,2.63
2023-01-12T12:30:34.454Z,4.03
2023-01-12T12:33:10.906Z,4.07
2023-01-12T12:35:41.551Z,2.37
2023-01-12T12:38:11.777Z,2.07
2023-01-12T12:41:18.428Z,1.53
2023-01-12T12:44:09.543Z,5.27
2023-01-12T12:46:56.166Z,2.43
2023-01-12T12:49:26.759Z,2.47
2023-01-12T12:51:56.266Z,1.53
2023-01-12T12:54:24.149Z,4.10
2023-01-12T12:56:51.351Z,2.70
2023-01-12T12:59:34.059Z,3.13
2023-01-12T13:02:04.164Z,2.70
2023-01-12T13:04:43.324Z,3.23
2023-01-12T13:07:23.299Z,2.90
2023-01-12T13:09:50.953Z,3.50
2023-01-12T13:12:19.248Z,2.30
2023-01-12T13:15:06.393Z,1.17
2023-01-12T13:17:33.744Z,2.20
2023-01-12T13:20:03.134Z,2.40
2023-01-12T13:22:50.080Z,0.80
2023-01-12T13:25:19.674Z,4.10
2023-01-12T13:27:49.624Z,5.17
2023-01-12T13:30:23.653Z,3.30
2023-01-12T13:32:53.813Z,3.07
2023-01-12T13:35:26.223Z,2.07
2023-01-12T13:38:15.750Z,1.90
2023-01-12T13:40:43.034Z,2.00
2023-01-12T13:43:34.551Z,2.83
2023-01-12T13:46:04.477Z,1.67
2023-01-12T13:48:32.851Z,1.77
2023-01-12T13:51:02.198Z,1.03
2023-01-12T13:53:30.535Z,3.23
2023-01-12T13:56:01.910Z,2.70
2023-01-12T13:58:30.364Z,1.77
2023-01-12T14:00:59.427Z,3.30
2023-01-12T14:03:52.657Z,4.77
2023-01-12T14:06:28.698Z,1.70
2023-01-12T14:09:02.888Z,2.43
2023-01-12T14:11:52.027Z,2.30
2023-01-12T14:14:44.091Z,1.30
2023-01-12T14:17:36.930Z,1.30
2023-01-12T14:20:22.409Z,2.10
2023-01-12T14:29:46.785Z,2.63
2023-01-12T14:32:14.584Z,2.27
2023-01-12T14:34:49.000Z,2.30
2023-01-12T14:37:34.341Z,0.77
2023-01-12T14:40:01.855Z,1.10
2023-01-12T14:42:47.601Z,4.43
2023-01-12T14:45:53.671Z,1.47
2023-01-12T14:48:23.843Z,3.53
2023-01-12T14:51:00.508Z,2.07
2023-01-12T14:53:40.312Z,1.20
2023-01-12T14:56:08.858Z,2.77
2023-01-12T14:58:36.422Z,2.80
2023-01-12T15:01:03.642Z,1.27
2023-01-12T15:03:39.378Z,2.27
2023-01-12T15:06:14.569Z,3.43
2023-01-12T15:08:52.352Z,1.63
2023-01-12T15:11:29.345Z,1.10
2023-01-12T15:13:58.158Z,1.50
2023-01-12T15:16:44.154Z,3.20
2023-01-12T15:19:30.211Z,2.87
2023-01-12T15:22:16.945Z,1.10
2023-01-12T15:25:03.228Z,1.57
2023-01-12T15:30:15.107Z,2.83
2023-01-12T15:32:48.030Z,2.67
2023-01-12T15:35:23.669Z,3.67
2023-01-12T15:37:51.768Z,2.27
2023-01-12T15:40:19.532Z,1.90
2023-01-12T15:42:47.486Z,2.90
2023-01-12T15:45:34.919Z,1.43
2023-01-12T15:48:05.989Z,3.37
2023-01-12T15:50:41.221Z,3.73
2023-01-12T15:53:16.386Z,1.23
2023-01-12T15:55:43.619Z,2.87
2023-01-12T15:58:10.843Z,2.83
2023-01-12T16:00:38.548Z,2.53
2023-01-12T16:03:06.584Z,3.13
2023-01-12T16:05:34.925Z,3.03
2023-01-12T16:08:02.081Z,2.07
2023-01-12T16:10:30.333Z,1.80
2023-01-12T16:13:01.955Z,1.80
2023-01-12T16:15:30.421Z,2.80
2023-01-12T16:17:57.655Z,2.00
2023-01-12T16:20:24.901Z,5.33
2023-01-12T16:22:52.079Z,1.53
2023-01-12T16:25:19.248Z,4.30
2023-01-12T16:27:46.514Z,2.30
2023-01-12T16:30:15.467Z,1.87
2023-01-12T16:32:46.777Z,3.07
2023-01-12T16:35:15.365Z,1.97
2023-01-12T16:37:42.694Z,1.27
2023-01-12T16:40:10.841Z,2.07
2023-01-12T16:42:38.139Z,5.40
2023-01-12T16:45:07.333Z,1.63
2023-01-12T16:47:34.460Z,5.43
2023-01-12T16:50:01.786Z,3.37
2023-01-12T16:52:29.066Z,4.77
2023-01-12T16:54:56.187Z,1.90
2023-01-12T16:57:23.327Z,2.30
2023-01-12T16:59:51.340Z,2.43
2023-01-12T17:02:18.982Z,2.10
2023-01-12T17:04:48.952Z,3.73
2023-01-12T17:07:16.320Z,1.90
2023-01-12T17:09:43.730Z,2.97
2023-01-12T17:12:11.404Z,5.63
2023-01-12T17:14:38.905Z,2.90
2023-01-12T17:17:08.264Z,3.70
2023-01-12T17:19:36.417Z,4.47
2023-01-12T17:22:04.622Z,2.70
2023-01-12T17:24:32.419Z,4.30
2023-01-12T17:26:59.800Z,3.00
2023-01-12T17:29:27.675Z,3.77
2023-01-12T17:31:57.141Z,7.23
2023-01-12T17:34:27.474Z,2.73
2023-01-12T17:36:54.648Z,3.57
2023-01-12T17:39:21.742Z,1.70
2023-01-12T17:42:07.712Z,5.80
2023-01-12T17:44:34.836Z,2.93
2023-01-12T17:47:02.473Z,1.50
2023-01-12T17:49:29.630Z,1.80
2023-01-12T17:51:56.831Z,1.60
2023-01-12T17:54:24.935Z,2.43
2023-01-12T17:56:52.405Z,4.17
2023-01-12T17:59:21.167Z,2.63
2023-01-12T18:01:48.503Z,2.20
2023-01-12T18:04:16.219Z,1.73
2023-01-12T18:06:43.648Z,3.40
2023-01-12T18:09:12.052Z,3.30
2023-01-12T18:11:39.592Z,2.80
2023-01-12T18:14:08.778Z,2.40
2023-01-12T18:16:36.142Z,2.80
2023-01-12T18:19:05.848Z,4.23
2023-01-12T18:21:33.619Z,3.67
2023-01-12T18:24:01.268Z,3.17
2023-01-12T18:26:29.858Z,4.77
2023-01-12T18:28:58.397Z,3.73
2023-01-12T18:31:43.189Z,3.70
2023-01-12T18:34:11.079Z,3.23
2023-01-12T18:36:41.199Z,4.37
2023-01-12T18:39:10.173Z,1.60
2023-01-12T18:41:56.165Z,3.40
2023-01-12T18:44:23.703Z,4.13
2023-01-12T18:47:09.667Z,3.90
2023-01-12T18:49:40.377Z,2.03
2023-01-12T18:52:26.250Z,2.87
2023-01-12T18:54:53.829Z,2.23
2023-01-12T18:57:22.894Z,4.13
2023-01-12T18:59:51.283Z,3.63
2023-01-12T19:02:19.050Z,2.73
2023-01-12T19:04:50.976Z,4.03
2023-01-12T19:07:27.399Z,3.67
2023-01-12T19:09:54.686Z,3.97
2023-01-12T19:12:21.838Z,5.63
2023-01-12T19:15:07.956Z,4.17
2023-01-12T19:17:35.246Z,4.80
2023-01-12T19:20:06.346Z,3.57
2023-01-12T19:22:52.266Z,3.83
2023-01-12T19:25:39.365Z,4.97
2023-01-12T19:28:26.209Z,6.77
2023-01-12T19:30:53.435Z,5.80
2023-01-12T19:33:21.213Z,5.90
2023-01-12T19:35:48.519Z,3.73
2023-01-12T19:38:15.670Z,2.30
2023-01-12T19:41:09.451Z,3.83
2023-01-12T19:43:38.070Z,3.60
2023-01-12T19:46:05.504Z,2.60
2023-01-12T19:48:32.817Z,2.80
2023-01-12T19:51:05.808Z,2.37
2023-01-12T19:53:33.259Z,4.20
2023-01-12T19:56:00.601Z,2.03
2023-01-12T19:58:28.740Z,2.60
2023-01-12T20:00:56.305Z,3.70
2023-01-12T20:03:24.454Z,1.70
2023-01-12T20:05:52.466Z,3.17
2023-01-12T20:08:20.257Z,2.50
2023-01-12T20:10:52.761Z,4.20
2023-01-12T20:13:19.954Z,2.87
2023-01-12T20:15:48.634Z,2.57
2023-01-12T20:18:15.820Z,4.07
2023-01-12T20:20:43.003Z,2.63
2023-01-12T20:23:10.243Z,2.77
2023-01-12T20:25:40.291Z,2.90
2023-01-12T20:28:07.935Z,3.70
2023-01-12T20:30:38.181Z,4.30
2023-01-12T20:33:08.197Z,5.87
2023-01-12T20:35:35.523Z,4.07
2023-01-12T20:38:04.011Z,2.60
2023-01-12T20:40:31.426Z,3.90
2023-01-12T20:42:58.672Z,2.70
2023-01-12T20:45:25.861Z,5.60
2023-01-12T20:47:52.999Z,3.10
2023-01-12T20:50:20.287Z,4.90
2023-01-12T20:52:49.091Z,4.17
2023-01-12T20:55:21.816Z,4.17
2023-01-12T20:57:49.373Z,5.00
2023-01-12T21:00:17.178Z,2.67
2023-01-12T21:02:44.338Z,3.90
2023-01-12T21:05:11.471Z,2.37
2023-01-12T21:07:38.920Z,2.43
2023-01-12T21:10:10.252Z,2.17
2023-01-12T21:12:37.754Z,1.57
2023-01-12T21:15:05.198Z,1.73
2023-01-12T21:17:32.440Z,2.10
2023-01-12T21:19:59.714Z,2.63
2023-01-12T21:22:26.903Z,3.43
2023-01-12T21:24:54.771Z,2.23
2023-01-12T21:27:22.006Z,3.17
2023-01-12T21:29:49.832Z,1.37
2023-01-12T21:32:17.124Z,2.47
2023-01-12T21:34:44.261Z,2.00
2023-01-12T21:37:11.515Z,1.73
2023-01-12T21:39:38.784Z,1.23
2023-01-12T21:42:24.452Z,1.50
2023-01-12T21:44:51.633Z,2.47
2023-01-12T21:47:18.914Z,1.73
2023-01-12T21:49:46.069Z,1.63
2023-01-12T21:52:13.311Z,2.77
2023-01-12T21:54:40.513Z,1.50
2023-01-12T21:57:10.876Z,1.70
2023-01-12T21:59:37.971Z,2.50
2023-01-12T22:02:06.129Z,1.83
2023-01-12T22:04:33.426Z,1.40
2023-01-12T22:07:00.541Z,1.63
2023-01-12T22:09:29.685Z,2.30
2023-01-12T22:11:56.820Z,2.13
2023-01-12T22:14:23.934Z,2.57
2023-01-12T22:16:51.142Z,4.27
2023-01-12T22:19:18.381Z,3.57
2023-01-12T22:21:45.555Z,1.87
2023-01-12T22:24:12.706Z,2.47
2023-01-12T22:26:39.793Z,2.90
2023-01-12T22:29:07.027Z,3.73
2023-01-12T22:31:34.230Z,1.83
2023-01-12T22:34:06.849Z,1.53
2023-01-12T22:36:40.851Z,2.10
2023-01-12T22:39:08.046Z,1.73
2023-01-12T22:41:35.250Z,1.57
2023-01-12T22:44:02.408Z,4.23
2023-01-12T22:46:29.724Z,1.73
2023-01-12T22:48:57.861Z,2.57
2023-01-12T22:51:26.356Z,1.10
2023-01-12T22:53:56.903Z,1.23
2023-01-12T22:56:24.218Z,2.07
2023-01-12T22:58:52.867Z,1.57
2023-01-12T23:01:21.102Z,2.47
2023-01-12T23:03:49.731Z,1.73
2023-01-12T23:06:17.395Z,0.90
2023-01-12T23:08:45.151Z,1.30
2023-01-12T23:11:17.342Z,1.77
2023-01-12T23:13:45.589Z,2.03
2023-01-12T23:16:14.140Z,1.10
2023-01-12T23:18:42.061Z,1.80
2023-01-12T23:21:14.147Z,2.30
2023-01-12T23:23:41.918Z,1.60
2023-01-12T23:26:10.055Z,3.47
2023-01-12T23:28:41.020Z,3.40
2023-01-12T23:31:09.847Z,3.40
2023-01-12T23:33:38.353Z,1.03
2023-01-12T23:36:10.764Z,3.77
2023-01-12T23:38:38.250Z,6.07
2023-01-12T23:41:15.584Z,4.90
2023-01-12T23:43:43.271Z,8.57
2023-01-12T23:46:10.427Z,5.20
2023-01-12T23:48:37.669Z,2.43
2023-01-12T23:51:05.316Z,1.17
2023-01-12T23:53:32.610Z,0.70
2023-01-12T23:56:04.296Z,2.00
2023-01-12T23:58:31.472Z,1.43
